Time;durP1;ratioP1;P1;durP2;ratioP2;P2;SDS_P1;SDS_P2;PMS_P1;PMS_P2;Temp;Humidity;BMP_temperature;BMP_pressure;BME280_temperature;BME280_humidity;BME280_pressure;Samples;Min_cycle;Max_cycle;Signal;HPM_P1;HPM_P2
2022/11/12 00:00:05;;;;;;;126.13;10.77;;;9.70;58.80;;;;;;20909;6720;119255;-87
2022/11/12 00:02:41;;;;;;;197.85;12.25;;;9.70;59.00;;;;;;20708;6721;335597;-87
2022/11/12 00:05:17;;;;;;;61.47;9.88;;;9.80;58.90;;;;;;20705;6735;309743;-87
2022/11/12 00:08:03;;;;;;;107.22;11.27;;;10.10;57.10;;;;;;20716;6736;276748;-87
2022/11/12 00:10:40;;;;;;;;;;;;;;;;;;;;;
2022/11/12 00:13:05;;;;;;;263.20;14.97;;;10.20;56.40;;;;;;21021;6700;117812;-87
2022/11/12 00:15:45;;;;;;;193.53;12.90;;;9.80;58.30;;;;;;21027;6754;121068;-87
2022/11/12 00:18:17;;;;;;;252.23;14.13;;;9.60;59.30;;;;;;21025;6700;117235;-87
2022/11/12 00:20:53;;;;;;;408.80;19.90;;;9.40;60.00;;;;;;20686;6700;339052;-87
2022/11/12 00:23:32;;;;;;;367.30;18.47;;;9.60;60.10;;;;;;20987;6700;120171;-87
2022/11/12 00:26:07;;;;;;;310.00;15.43;;;9.60;59.90;;;;;;20904;6737;117337;-87
2022/11/12 00:28:43;;;;;;;195.55;14.75;;;9.40;60.30;;;;;;20743;6714;276848;-87
2022/11/12 00:31:18;;;;;;;420.87;18.17;;;9.60;60.40;;;;;;20837;6714;118561;-88
2022/11/12 00:33:54;;;;;;;308.50;17.17;;;9.60;60.30;;;;;;21026;6699;117607;-86
2022/11/12 00:36:29;;;;;;;349.10;18.67;;;9.50;60.70;;;;;;20709;6731;336327;-87
2022/11/12 00:39:05;;;;;;;190.17;14.87;;;9.70;60.90;;;;;;20929;6726;117730;-89
2022/11/12 00:41:41;;;;;;;90.67;10.40;;;9.70;60.60;;;;;;20816;6714;117783;-87
2022/11/12 00:44:16;;;;;;;397.23;19.70;;;9.50;61.80;;;;;;20705;6717;306442;-87
2022/11/12 00:46:55;;;;;;;208.87;13.93;;;9.70;60.70;;;;;;20924;6722;117433;-88
2022/11/12 00:49:27;;;;;;;173.68;14.95;;;9.80;60.60;;;;;;20717;6730;335127;-87
2022/11/12 00:52:03;;;;;;;129.50;12.43;;;9.90;60.10;;;;;;20817;6764;124583;-87
2022/11/12 00:54:40;;;;;;;427.73;19.57;;;9.90;60.10;;;;;;20873;6729;120731;-87
2022/11/12 00:57:15;;;;;;;134.60;14.30;;;9.70;60.60;;;;;;20743;6711;306437;-87
2022/11/12 00:59:51;;;;;;;274.42;19.83;;;9.90;60.70;;;;;;20789;6703;276982;-88
2022/11/12 01:02:38;;;;;;;;;;;;;;;;;;;;;
2022/11/12 01:05:03;;;;;;;277.17;18.47;;;10.50;58.20;;;;;;20563;6725;277235;-95
2022/11/12 01:07:39;;;;;;;371.87;18.37;;;10.70;57.40;;;;;;20645;6735;310294;-88
2022/11/12 01:10:15;;;;;;;391.13;18.33;;;10.90;56.80;;;;;;20825;6716;117720;-88
2022/11/12 01:12:50;;;;;;;188.98;16.17;;;10.70;57.20;;;;;;20679;6728;279999;-88
2022/11/12 01:15:31;;;;;;;334.92;19.08;;;10.60;57.20;;;;;;20617;6759;277874;-88
2022/11/12 01:18:01;;;;;;;303.10;18.00;;;10.80;57.10;;;;;;20860;6758;116638;-88
2022/11/12 01:20:37;;;;;;;462.63;19.90;;;10.60;57.30;;;;;;20799;6742;123787;-88
2022/11/12 01:23:16;;;;;;;262.85;16.90;;;10.30;58.20;;;;;;20720;6737;309732;-89
2022/11/12 01:25:51;;;;;;;415.70;20.35;;;10.30;58.00;;;;;;20780;6713;276586;-88
2022/11/12 01:28:27;;;;;;;441.37;18.90;;;10.60;57.80;;;;;;20978;6703;118028;-88
2022/11/12 01:31:19;;;;;;;387.70;19.00;;;10.50;57.80;;;;;;20486;6734;337531;-87
2022/11/12 01:33:54;;;;;;;186.15;14.98;;;10.50;57.60;;;;;;20761;6710;306843;-88
2022/11/12 01:36:31;;;;;;;379.70;19.10;;;10.80;57.00;;;;;;20718;6730;293570;-88
2022/11/12 01:39:06;;;;;;;217.53;14.17;;;10.90;56.40;;;;;;20863;6744;121163;-89
2022/11/12 01:41:42;;;;;;;272.65;16.77;;;10.60;56.60;;;;;;20567;6727;307766;-88
2022/11/12 01:44:18;;;;;;;324.57;17.57;;;10.60;56.80;;;;;;20967;6714;117639;-88
2022/11/12 01:47:03;;;;;;;257.27;15.17;;;10.40;57.20;;;;;;20888;6727;122307;-89
2022/11/12 01:49:48;;;;;;;287.65;16.37;;;10.00;57.80;;;;;;20731;6720;309347;-89
2022/11/12 01:52:30;;;;;;;432.67;17.37;;;10.10;57.80;;;;;;20942;6729;117545;-89
2022/11/12 01:55:06;;;;;;;304.00;14.67;;;10.00;57.90;;;;;;20922;6720;118855;-88
2022/11/12 01:57:47;;;;;;;213.53;14.93;;;9.70;59.60;;;;;;20767;6718;275929;-89
2022/11/12 02:00:19;;;;;;;159.30;14.18;;;9.80;59.60;;;;;;20683;6725;308921;-87
2022/11/12 02:02:55;;;;;;;176.60;14.17;;;10.20;57.80;;;;;;20920;6726;126923;-87
2022/11/12 02:05:34;;;;;;;146.67;13.60;;;10.10;57.70;;;;;;20680;6736;310620;-87
2022/11/12 02:08:06;;;;;;;69.60;11.55;;;10.10;57.80;;;;;;20746;6721;309355;-87
2022/11/12 02:10:43;;;;;;;54.20;10.88;;;10.40;57.90;;;;;;20558;6740;279070;-87
2022/11/12 02:16:15;;;;;;;236.30;17.23;;;10.80;56.40;;;;;;20772;6720;306864;-88
2022/11/12 02:18:51;;;;;;;488.60;21.20;;;11.00;56.10;;;;;;20906;6731;118425;-88
2022/11/12 02:21:27;;;;;;;232.37;15.23;;;10.80;56.40;;;;;;20785;6722;116991;-88
2022/11/12 02:24:12;;;;;;;297.37;17.17;;;10.40;57.20;;;;;;20691;6734;289127;-88
2022/11/12 02:26:48;;;;;;;320.73;18.40;;;10.40;57.20;;;;;;20723;6731;307227;-88
2022/11/12 02:29:23;;;;;;;359.67;19.13;;;10.60;56.30;;;;;;20743;6720;276915;-88
2022/11/12 02:32:00;;;;;;;1005.97;33.08;;;10.80;55.90;;;;;;20505;6791;336990;-88
2022/11/12 02:34:35;;;;;;;416.03;17.97;;;11.00;55.70;;;;;;20921;6734;117604;-88
2022/11/12 02:37:12;;;;;;;331.97;16.07;;;10.70;55.90;;;;;;20917;6734;117605;-88
2022/11/12 02:39:48;;;;;;;285.83;16.67;;;10.30;56.80;;;;;;20725;6720;278690;-88
2022/11/12 02:42:23;;;;;;;416.97;17.33;;;10.30;57.10;;;;;;20915;6735;117972;-88
2022/11/12 02:45:00;;;;;;;371.30;16.00;;;10.20;57.20;;;;;;20901;6734;118364;-88
2022/11/12 02:47:36;;;;;;;243.48;17.12;;;9.90;58.80;;;;;;20703;6734;339215;-88
2022/11/12 02:50:11;;;;;;;419.42;19.98;;;10.00;58.10;;;;;;20640;6734;279496;-88
2022/11/12 02:52:47;;;;;;;87.47;12.33;;;10.30;57.10;;;;;;20765;6709;276553;-88
2022/11/12 02:55:23;;;;;;;286.63;16.83;;;10.50;56.70;;;;;;20774;6709;303531;-88
2022/11/12 02:57:58;;;;;;;371.50;17.63;;;10.70;56.30;;;;;;20958;6721;117748;-88
2022/11/12 03:00:34;;;;;;;280.30;14.60;;;10.50;56.50;;;;;;20858;6720;117914;-89
2022/11/12 03:03:09;;;;;;;295.73;15.63;;;10.10;57.30;;;;;;20938;6720;117525;-88
2022/11/12 03:05:45;;;;;;;286.77;13.57;;;9.80;59.20;;;;;;20937;6717;118123;-89
2022/11/12 03:08:20;;;;;;;399.73;18.75;;;9.60;59.80;;;;;;20727;6718;335772;-88
2022/11/12 03:10:56;;;;;;;397.27;18.47;;;9.70;59.10;;;;;;20767;6753;117962;-88
2022/11/12 03:13:32;;;;;;;239.17;13.50;;;9.70;59.10;;;;;;20859;6749;122240;-88
2022/11/12 03:16:13;;;;;;;160.10;14.23;;;9.50;59.70;;;;;;20655;6758;306759;-88
2022/11/12 03:18:43;;;;;;;264.67;14.87;;;9.70;59.90;;;;;;20857;6750;117954;-89
2022/11/12 03:21:18;;;;;;;424.73;16.40;;;9.70;59.90;;;;;;20802;6726;117872;-88
2022/11/12 03:23:54;;;;;;;675.23;22.97;;;9.50;60.10;;;;;;20928;6726;70239;-88
2022/11/12 03:26:30;;;;;;;365.07;15.77;;;9.40;60.60;;;;;;20979;6711;116869;-88
2022/11/12 03:29:06;;;;;;;141.57;13.88;;;9.20;60.90;;;;;;20797;6716;323604;-90
2022/11/12 03:31:42;;;;;;;125.30;11.90;;;9.50;61.00;;;;;;20906;6710;117225;-90
2022/11/12 03:34:17;;;;;;;355.10;16.93;;;9.50;60.80;;;;;;21008;6719;119308;-90
2022/11/12 03:36:53;;;;;;;412.53;17.30;;;9.40;61.10;;;;;;20858;6749;120774;-88
2022/11/12 03:39:30;;;;;;;361.77;17.45;;;9.30;61.40;;;;;;20721;6731;336734;-88
2022/11/12 03:42:05;;;;;;;193.13;13.13;;;9.50;60.70;;;;;;20940;6726;120102;-89
2022/11/12 03:44:42;;;;;;;237.87;13.07;;;9.50;60.30;;;;;;20905;6729;127180;-88
2022/11/12 03:47:18;;;;;;;198.77;14.10;;;9.30;60.60;;;;;;20672;6744;329394;-89
2022/11/12 03:49:53;;;;;;;295.93;15.50;;;9.50;60.20;;;;;;20856;6718;116609;-89
2022/11/12 03:52:29;;;;;;;229.10;13.63;;;9.50;60.00;;;;;;21085;6702;116536;-90
2022/11/12 03:55:06;;;;;;;259.37;13.10;;;9.30;60.40;;;;;;20961;6733;122392;-89
2022/11/12 03:57:50;;;;;;;191.17;14.63;;;9.20;61.10;;;;;;20624;6738;308137;-90
2022/11/12 04:00:17;;;;;;;503.27;24.90;;;9.40;60.40;;;;;;20911;6733;116568;-89
2022/11/12 04:02:54;;;;;;;237.57;16.90;;;9.50;60.40;;;;;;20844;6701;276003;-90
2022/11/12 04:08:38;;;;;;;348.07;16.90;;;9.60;59.70;;;;;;20945;6732;116730;-88
2022/11/12 04:11:13;;;;;;;244.18;16.70;;;9.40;60.30;;;;;;20594;6732;308662;-88
2022/11/12 04:13:49;;;;;;;438.20;20.70;;;9.60;60.10;;;;;;20710;6728;305858;-87
2022/11/12 04:22:17;;;;;;;216.18;14.80;;;10.50;56.40;;;;;;20789;6705;306435;-87
2022/11/12 04:27:48;;;;;;;96.10;10.63;;;10.40;56.20;;;;;;20942;6720;115074;-88
2022/11/12 04:30:24;;;;;;;400.00;19.70;;;10.00;57.20;;;;;;20675;6720;337398;-88
2022/11/12 04:33:00;;;;;;;270.48;17.60;;;10.00;57.00;;;;;;20774;6705;281297;-88
2022/11/12 04:35:37;;;;;;;253.57;16.87;;;10.30;56.10;;;;;;20711;6732;277284;-88
2022/11/12 04:38:13;;;;;;;135.50;10.80;;;10.50;55.70;;;;;;20925;6731;118466;-89
2022/11/12 04:46:43;;;;;;;236.43;16.33;;;9.90;57.30;;;;;;20777;6704;277738;-88
2022/11/12 04:49:19;;;;;;;539.73;22.27;;;10.20;55.80;;;;;;20767;6709;275291;-88
2022/11/12 04:52:04;;;;;;;424.73;19.60;;;10.40;55.50;;;;;;20716;6794;119114;-88
2022/11/12 04:54:40;;;;;;;351.40;16.70;;;10.10;55.70;;;;;;20957;6712;119305;-88
2022/11/12 04:57:16;;;;;;;409.90;16.73;;;9.70;57.50;;;;;;20968;6716;117611;-88
2022/11/12 04:59:53;;;;;;;282.00;13.57;;;9.40;58.40;;;;;;20987;6700;117437;-88
2022/11/12 05:02:28;;;;;;;281.03;13.17;;;9.20;59.10;;;;;;20964;6716;117689;-88
2022/11/12 05:05:04;;;;;;;215.67;12.30;;;9.00;59.70;;;;;;20889;6764;122325;-89
2022/11/12 05:07:39;;;;;;;218.50;13.30;;;8.90;60.10;;;;;;20957;6725;117344;-88
2022/11/12 05:10:15;;;;;;;258.15;14.82;;;8.80;60.50;;;;;;20691;6717;311735;-88
2022/11/12 05:12:51;;;;;;;711.17;25.92;;;9.00;60.00;;;;;;20752;6709;275474;-87
2022/11/12 05:15:27;;;;;;;95.00;9.17;;;9.40;58.70;;;;;;20985;6709;121071;-87
2022/11/12 05:18:04;;;;;;;188.98;15.35;;;9.40;58.70;;;;;;20772;6709;305444;-87
2022/11/12 05:20:50;;;;;;;350.10;17.50;;;9.50;58.50;;;;;;20663;6709;320139;-87
2022/11/12 05:23:17;;;;;;;260.33;15.60;;;9.80;57.30;;;;;;20788;6709;276012;-88
2022/11/12 05:26:02;;;;;;;;;;;;;;;;;;;;;
2022/11/12 05:28:28;;;;;;;85.20;11.03;;;9.80;56.90;;;;;;20996;6709;117612;-88
2022/11/12 05:31:13;;;;;;;264.88;16.23;;;9.50;57.80;;;;;;20613;6709;340672;-87
2022/11/12 05:33:40;;;;;;;183.90;12.03;;;9.50;57.50;;;;;;20992;6709;117303;-88
2022/11/12 05:36:16;;;;;;;543.37;23.23;;;9.50;57.70;;;;;;20773;6709;339171;-88
2022/11/12 05:38:51;;;;;;;712.90;24.73;;;9.60;57.40;;;;;;20979;6709;145043;-87
2022/11/12 05:41:27;;;;;;;634.87;20.90;;;9.50;57.40;;;;;;20807;6709;118841;-88
2022/11/12 05:44:04;;;;;;;620.37;19.50;;;9.20;57.90;;;;;;20994;6709;117846;-88
2022/11/12 05:46:39;;;;;;;325.63;15.80;;;9.00;58.30;;;;;;20739;6709;306025;-88
2022/11/12 05:49:16;;;;;;;521.70;21.93;;;9.20;58.10;;;;;;20781;6709;308673;-87
2022/11/12 05:51:51;;;;;;;413.63;17.80;;;9.50;57.40;;;;;;20769;6709;117741;-88
2022/11/12 05:54:27;;;;;;;160.07;12.77;;;9.40;57.40;;;;;;20988;6709;118338;-87
2022/11/12 05:57:03;;;;;;;380.97;16.47;;;9.10;58.00;;;;;;21042;6709;119102;-87
2022/11/12 05:59:38;;;;;;;469.70;20.45;;;8.90;58.70;;;;;;20826;6709;279003;-88
2022/11/12 06:02:14;;;;;;;441.50;17.65;;;9.10;58.40;;;;;;20765;6709;309407;-87
2022/11/12 06:04:49;;;;;;;384.00;16.60;;;9.40;57.70;;;;;;20764;6708;275740;-88
2022/11/12 06:07:25;;;;;;;474.30;17.87;;;9.70;56.90;;;;;;20776;6709;342281;-87
2022/11/12 06:10:01;;;;;;;300.03;14.17;;;9.90;56.40;;;;;;20956;6709;116222;-89
2022/11/12 06:12:36;;;;;;;131.90;9.73;;;9.70;56.60;;;;;;21001;6709;117643;-88
2022/11/12 06:15:12;;;;;;;432.40;16.70;;;9.30;57.50;;;;;;20993;6709;117746;-88
2022/11/12 06:17:47;;;;;;;409.30;14.00;;;9.10;58.40;;;;;;20997;6709;117493;-88
2022/11/12 06:20:23;;;;;;;270.95;14.10;;;8.90;59.00;;;;;;20690;6709;339175;-87
2022/11/12 06:22:59;;;;;;;410.30;15.73;;;9.00;58.70;;;;;;20772;6709;285372;-87
2022/11/12 06:25:36;;;;;;;274.67;12.93;;;9.30;57.90;;;;;;21002;6709;122915;-87
2022/11/12 06:28:11;;;;;;;206.23;9.97;;;9.30;57.90;;;;;;20996;6709;117835;-88
2022/11/12 06:30:47;;;;;;;347.57;12.60;;;9.00;58.50;;;;;;20860;6709;118550;-87
2022/11/12 06:33:22;;;;;;;315.50;12.80;;;8.80;59.10;;;;;;20822;6709;332564;-89
2022/11/12 06:36:01;;;;;;;252.73;11.33;;;8.90;59.00;;;;;;20891;6734;120703;-95
2022/11/12 06:38:33;;;;;;;322.27;12.07;;;9.00;58.90;;;;;;20962;6719;118646;-86
2022/11/12 06:41:09;;;;;;;382.20;12.83;;;8.80;59.50;;;;;;20815;6718;118022;-86
2022/11/12 06:43:46;;;;;;;175.55;10.70;;;8.70;60.00;;;;;;20798;6703;304559;-87
2022/11/12 06:46:22;;;;;;;184.63;9.33;;;8.90;59.60;;;;;;20698;6731;306127;-90
2022/11/12 06:48:57;;;;;;;135.37;8.33;;;9.30;58.40;;;;;;20902;6729;117866;-88
2022/11/12 06:51:43;;;;;;;123.70;7.50;;;9.20;58.20;;;;;;20817;6729;67312;-87
2022/11/12 06:54:08;;;;;;;205.23;9.50;;;9.00;58.90;;;;;;20779;6714;303925;-87
2022/11/12 06:56:54;;;;;;;227.77;10.25;;;9.10;58.50;;;;;;20740;6714;305100;-87
2022/11/12 06:59:20;;;;;;;151.67;8.40;;;9.50;57.60;;;;;;20971;6719;120683;-90
2022/11/12 07:01:55;;;;;;;89.10;7.07;;;9.40;57.50;;;;;;20715;6799;123058;-86
2022/11/12 07:04:31;;;;;;;173.97;8.07;;;9.10;58.20;;;;;;20929;6728;116105;-88
2022/11/12 07:07:06;;;;;;;160.33;7.87;;;8.90;59.70;;;;;;20987;6716;117740;-87
2022/11/12 07:09:42;;;;;;;153.70;7.78;;;8.70;59.60;;;;;;20739;6722;334278;-89
2022/11/12 07:12:18;;;;;;;91.60;7.22;;;9.00;59.20;;;;;;20765;6713;336459;-87
2022/11/12 07:15:03;;;;;;;113.65;8.10;;;9.40;58.10;;;;;;20720;6721;306102;-92
2022/11/12 07:17:29;;;;;;;229.07;9.30;;;9.70;57.00;;;;;;20892;6749;118930;-88
2022/11/12 07:20:05;;;;;;;92.90;6.72;;;9.60;57.30;;;;;;20697;6734;310609;-87
2022/11/12 07:22:44;;;;;;;177.50;8.80;;;9.70;57.10;;;;;;20790;6710;306713;-86
2022/11/12 07:25:19;;;;;;;100.30;7.30;;;9.90;56.30;;;;;;20965;6696;118335;-86
2022/11/12 07:27:55;;;;;;;117.77;7.47;;;9.70;56.50;;;;;;20962;6710;116724;-86
2022/11/12 07:30:30;;;;;;;170.50;8.33;;;9.40;57.40;;;;;;20827;6735;117699;-88
2022/11/12 07:33:06;;;;;;;239.13;11.07;;;9.20;58.10;;;;;;20969;6733;117624;-86
2022/11/12 07:35:45;;;;;;;193.67;9.23;;;9.00;58.70;;;;;;20968;6719;116460;-87
2022/11/12 07:38:17;;;;;;;273.20;9.97;;;8.90;59.40;;;;;;20970;6720;117255;-87
2022/11/12 07:41:06;;;;;;;337.60;12.63;;;8.80;59.90;;;;;;20810;6717;117783;-87
2022/11/12 07:43:38;;;;;;;465.87;14.73;;;8.70;60.00;;;;;;21026;6712;116864;-93
2022/11/12 07:46:17;;;;;;;262.33;12.00;;;8.70;60.30;;;;;;20974;6717;118226;-86
2022/11/12 07:48:52;;;;;;;368.30;15.07;;;8.60;60.50;;;;;;20940;6717;143877;-89
2022/11/12 07:51:28;;;;;;;238.63;10.13;;;8.60;60.80;;;;;;20764;6717;118202;-86
2022/11/12 07:54:13;;;;;;;163.07;12.33;;;8.60;61.00;;;;;;20971;6717;116904;-88
2022/11/12 07:56:40;;;;;;;513.33;18.37;;;8.60;61.20;;;;;;20888;6733;122654;-87
2022/11/12 07:59:15;;;;;;;655.63;23.00;;;8.60;62.10;;;;;;20710;6728;306760;-86
2022/11/12 08:01:51;;;;;;;139.33;9.20;;;8.90;60.30;;;;;;20768;6727;117906;-87
2022/11/12 08:04:27;;;;;;;67.70;6.40;;;9.00;59.90;;;;;;20907;6751;117767;-89
2022/11/12 08:07:02;;;;;;;301.97;11.00;;;9.00;60.30;;;;;;20904;6729;119713;-86
2022/11/12 08:09:38;;;;;;;246.10;13.10;;;9.00;60.70;;;;;;20679;6744;277101;-86
2022/11/12 08:12:13;;;;;;;311.27;12.53;;;9.20;60.00;;;;;;20896;6743;122327;-89
2022/11/12 08:14:49;;;;;;;143.10;8.80;;;9.30;59.90;;;;;;20819;6756;117653;-88
2022/11/12 08:17:25;;;;;;;147.17;8.40;;;9.20;60.40;;;;;;20906;6744;116311;-87
2022/11/12 08:20:00;;;;;;;113.60;6.80;;;9.20;60.90;;;;;;20917;6733;120045;-89
2022/11/12 08:22:36;;;;;;;49.20;5.27;;;9.10;61.10;;;;;;21011;6725;116316;-93
2022/11/12 08:25:11;;;;;;;454.20;17.25;;;9.10;61.30;;;;;;20844;6700;340548;-90
2022/11/12 08:27:47;;;;;;;300.63;13.53;;;9.40;60.60;;;;;;21017;6720;116315;-90
2022/11/12 08:30:22;;;;;;;143.35;10.00;;;9.60;60.20;;;;;;20631;6743;339577;-90
2022/11/12 08:32:58;;;;;;;239.38;11.95;;;9.90;59.20;;;;;;20650;6746;312555;-87
2022/11/12 08:35:34;;;;;;;323.60;14.67;;;10.20;57.10;;;;;;20665;6746;277524;-87
2022/11/12 08:38:10;;;;;;;65.87;7.77;;;10.50;55.80;;;;;;20678;6749;307778;-89
2022/11/12 08:40:45;;;;;;;126.67;8.63;;;10.70;55.10;;;;;;20755;6743;117676;-87
2022/11/12 08:43:20;;;;;;;63.63;7.47;;;10.50;55.50;;;;;;20736;6723;308214;-87
2022/11/12 08:45:56;;;;;;;59.85;7.28;;;10.50;55.50;;;;;;20731;6720;276993;-88
2022/11/12 08:48:33;;;;;;;81.73;6.70;;;10.70;55.20;;;;;;20988;6712;120008;-89
2022/11/12 08:51:08;;;;;;;152.23;9.27;;;10.60;55.60;;;;;;20591;6725;278008;-89
2022/11/12 08:53:44;;;;;;;41.27;6.20;;;10.60;55.50;;;;;;20971;6714;117247;-88
2022/11/12 08:56:20;;;;;;;21.33;6.78;;;10.50;56.10;;;;;;20775;6713;305210;-91
2022/11/12 08:58:55;;;;;;;89.00;7.87;;;10.70;56.10;;;;;;20699;6728;305604;-89
2022/11/12 09:01:31;;;;;;;6.67;4.80;;;11.00;55.60;;;;;;20714;6737;118258;-87
2022/11/12 09:04:06;;;;;;;4.57;4.37;;;10.90;55.90;;;;;;20903;6740;117060;-89
2022/11/12 09:06:42;;;;;;;6.07;5.68;;;10.70;56.80;;;;;;20741;6715;334547;-88
2022/11/12 09:09:17;;;;;;;4.93;4.73;;;10.90;56.60;;;;;;20947;6727;117424;-87
2022/11/12 09:11:53;;;;;;;4.53;4.33;;;11.00;56.80;;;;;;20723;6793;118125;-87
2022/11/12 09:14:29;;;;;;;4.20;3.90;;;10.90;57.00;;;;;;20992;6707;116918;-91
2022/11/12 09:17:04;;;;;;;17.85;6.90;;;10.80;57.20;;;;;;20653;6741;281396;-91
2022/11/12 09:19:40;;;;;;;4.87;4.47;;;11.00;55.20;;;;;;20841;6756;117235;-87
2022/11/12 09:22:15;;;;;;;6.20;4.50;;;11.00;55.40;;;;;;20906;6740;117942;-89
2022/11/12 09:24:51;;;;;;;7.10;6.05;;;10.90;55.90;;;;;;20717;6718;305126;-90
2022/11/12 09:27:36;;;;;;;261.73;12.00;;;11.10;54.50;;;;;;20972;6718;116954;-88
2022/11/12 09:30:03;;;;;;;145.87;10.57;;;11.10;54.60;;;;;;20763;6702;307811;-89
2022/11/12 09:32:38;;;;;;;4.80;4.50;;;11.20;54.10;;;;;;20935;6735;118136;-90
2022/11/12 09:35:23;;;;;;;162.90;10.00;;;11.10;54.30;;;;;;20936;6734;116436;-87
2022/11/12 09:37:50;;;;;;;381.58;18.00;;;10.80;55.00;;;;;;20642;6807;336918;-87
2022/11/12 09:40:39;;;;;;;5.97;5.57;;;11.00;54.50;;;;;;20871;6728;117545;-87
2022/11/12 09:43:14;;;;;;;234.73;17.30;;;10.90;54.90;;;;;;20666;6793;117897;-87
2022/11/12 09:45:50;;;;;;;9.07;7.63;;;10.80;55.80;;;;;;20947;6723;117984;-87
2022/11/12 09:48:28;;;;;;;64.70;8.63;;;10.60;56.30;;;;;;20772;6712;275797;-87
2022/11/12 09:51:20;;;;;;;20.17;7.07;;;10.90;55.70;;;;;;20859;6712;119011;-89
2022/11/12 09:53:59;;;;;;;6.83;6.43;;;11.00;55.70;;;;;;20677;6727;306507;-90
2022/11/12 09:56:34;;;;;;;28.85;7.25;;;11.20;54.60;;;;;;20742;6719;340250;-91
2022/11/12 09:59:10;;;;;;;6.80;6.25;;;11.50;53.70;;;;;;20794;6702;305310;-87
2022/11/12 10:01:59;;;;;;;10.47;4.50;;;11.80;53.20;;;;;;20832;6708;123662;-90
2022/11/12 10:04:57;;;;;;;4.75;4.40;;;11.70;53.80;;;;;;20750;6719;334992;-88
2022/11/12 10:07:59;;;;;;;21.00;3.63;;;11.90;54.30;;;;;;20921;6731;117956;-87
2022/11/12 10:10:45;;;;;;;11.82;4.20;;;12.00;55.00;;;;;;20636;6782;337873;-89
2022/11/12 10:13:50;;;;;;;4.93;3.90;;;12.30;54.20;;;;;;20927;6732;117492;-89
2022/11/12 10:16:45;;;;;;;5.97;4.37;;;12.30;54.00;;;;;;20670;6733;284230;-88
2022/11/12 10:19:37;;;;;;;5.07;4.17;;;12.60;52.80;;;;;;21023;6701;117723;-88
2022/11/12 10:22:12;;;;;;;3.07;2.97;;;12.70;53.50;;;;;;20702;6731;309052;-89
2022/11/12 10:24:49;;;;;;;4.00;3.80;;;12.90;52.90;;;;;;20743;6720;279738;-89
2022/11/12 10:27:28;;;;;;;5.80;5.32;;;13.30;52.00;;;;;;20727;6730;321400;-91
2022/11/12 10:30:04;;;;;;;3.63;3.43;;;13.60;51.50;;;;;;20615;6742;284752;-90
2022/11/12 10:32:40;;;;;;;4.40;4.10;;;13.90;51.00;;;;;;20747;6710;308260;-88
2022/11/12 10:35:15;;;;;;;4.22;4.03;;;14.10;50.30;;;;;;20762;6766;334887;-90
2022/11/12 10:37:57;;;;;;;4.10;3.90;;;14.30;49.90;;;;;;20919;6788;117243;-91
2022/11/12 10:40:33;;;;;;;4.33;4.03;;;14.20;50.50;;;;;;20924;6714;115991;-92
2022/11/12 10:43:15;;;;;;;7.37;6.97;;;13.90;51.30;;;;;;20960;6716;116184;-91
2022/11/12 10:45:51;;;;;;;14.47;13.10;;;13.60;51.80;;;;;;20951;6712;114093;-91
2022/11/12 10:48:32;;;;;;;5.03;4.73;;;13.40;52.40;;;;;;20959;6771;116956;-91
2022/11/12 10:51:06;;;;;;;4.10;3.90;;;13.30;52.80;;;;;;20672;6696;306646;-90
2022/11/12 10:53:45;;;;;;;4.33;4.03;;;13.50;51.60;;;;;;20827;6702;121016;-96
2022/11/12 10:56:28;;;;;;;3.95;3.75;;;13.50;51.90;;;;;;20793;6706;329732;-96
2022/11/12 10:59:16;;;;;;;4.30;4.10;;;13.70;51.30;;;;;;20337;6772;305492;-90
2022/11/12 11:01:59;;;;;;;4.27;3.97;;;14.00;50.60;;;;;;20690;6827;117233;-89
2022/11/12 11:04:36;;;;;;;4.10;3.90;;;13.90;51.10;;;;;;20981;6714;116339;-86
2022/11/12 11:07:15;;;;;;;4.70;4.37;;;13.70;51.80;;;;;;20906;6784;117119;-88
2022/11/12 11:09:54;;;;;;;4.70;4.50;;;13.50;52.40;;;;;;20692;6728;340963;-88
2022/11/12 11:12:32;;;;;;;3.67;3.40;;;13.60;51.20;;;;;;20918;6770;116883;-92
2022/11/12 11:15:14;;;;;;;4.23;4.03;;;13.70;51.60;;;;;;20687;6716;298792;-93
2022/11/12 11:17:53;;;;;;;4.00;3.80;;;13.80;50.80;;;;;;20635;6736;277530;-89
2022/11/12 11:20:46;;;;;;;6.50;6.10;;;14.20;50.30;;;;;;20657;6729;308214;-91
2022/11/12 11:23:22;;;;;;;4.13;3.93;;;14.40;49.80;;;;;;20784;6708;116983;-91
2022/11/12 11:25:58;;;;;;;3.73;3.53;;;14.40;50.50;;;;;;20857;6708;117413;-88
2022/11/12 11:28:46;;;;;;;3.80;3.60;;;14.10;51.10;;;;;;20772;6695;276439;-88
2022/11/12 11:31:35;;;;;;;4.23;3.93;;;14.20;50.70;;;;;;20524;6734;301291;-89
2022/11/12 11:34:33;;;;;;;5.43;5.00;;;14.50;50.10;;;;;;21003;6694;116996;-88
2022/11/12 11:37:17;;;;;;;3.40;3.27;;;14.50;50.70;;;;;;20973;6712;118034;-87
2022/11/12 11:40:12;;;;;;;3.83;3.53;;;14.30;51.30;;;;;;20871;6724;118020;-89
2022/11/12 11:42:42;;;;;;;3.30;3.03;;;14.20;51.90;;;;;;20915;6717;117059;-90
2022/11/12 11:45:17;;;;;;;4.37;4.17;;;14.10;52.20;;;;;;20506;6765;305778;-89
2022/11/12 11:47:53;;;;;;;4.47;4.17;;;14.40;50.60;;;;;;20971;6710;119071;-87
2022/11/12 11:50:36;;;;;;;3.80;3.60;;;14.40;50.90;;;;;;20869;6712;116897;-88
2022/11/12 11:53:33;;;;;;;3.13;2.93;;;14.30;51.50;;;;;;21081;6709;115900;-87
2022/11/12 11:56:09;;;;;;;9.67;8.90;;;14.20;52.00;;;;;;20695;6728;306253;-90
2022/11/12 11:58:44;;;;;;;3.93;3.63;;;14.50;50.80;;;;;;20629;6724;120766;-87
2022/11/12 12:01:46;;;;;;;5.07;4.85;;;14.60;51.00;;;;;;20587;6708;277897;-88
2022/11/12 12:04:28;;;;;;;5.30;4.00;;;14.70;50.20;;;;;;20802;6694;333897;-89
2022/11/12 12:07:13;;;;;;;4.90;4.50;;;15.00;49.40;;;;;;20770;6750;276561;-89
2022/11/12 12:09:55;;;;;;;4.37;4.17;;;15.30;49.00;;;;;;20961;6694;118038;-86
2022/11/12 12:12:44;;;;;;;4.50;4.20;;;15.20;49.60;;;;;;20771;6750;305617;-86
2022/11/12 12:15:40;;;;;;;4.20;4.00;;;15.30;48.80;;;;;;20759;6713;285487;-88
2022/11/12 12:18:36;;;;;;;4.85;4.55;;;15.50;48.10;;;;;;20761;6708;279938;-87
2022/11/12 12:21:15;;;;;;;5.60;5.20;;;15.70;48.40;;;;;;19936;6836;279644;-87
2022/11/12 12:24:13;;;;;;;4.85;4.65;;;15.90;47.40;;;;;;20739;6713;306507;-88
2022/11/12 12:26:49;;;;;;;5.47;5.13;;;15.90;46.90;;;;;;20873;6729;121900;-87
2022/11/12 12:29:32;;;;;;;5.25;4.95;;;15.60;48.00;;;;;;20750;6710;305467;-94
2022/11/12 12:32:17;;;;;;;4.90;4.60;;;15.50;47.80;;;;;;20919;6725;118363;-86
2022/11/12 12:34:58;;;;;;;4.60;4.30;;;15.40;48.70;;;;;;20900;6710;118529;-91
2022/11/12 12:37:36;;;;;;;5.67;5.27;;;15.10;49.40;;;;;;20710;6725;279615;-92
2022/11/12 12:40:17;;;;;;;6.03;5.70;;;15.20;48.70;;;;;;20682;6755;299089;-88
2022/11/12 12:43:06;;;;;;;35.65;32.13;;;15.40;48.00;;;;;;20665;6738;277004;-89
2022/11/12 12:45:42;;;;;;;6.80;6.40;;;15.70;47.40;;;;;;21000;6700;117227;-87
2022/11/12 12:48:22;;;;;;;6.40;6.00;;;15.50;48.20;;;;;;20637;6700;334021;-89
2022/11/12 12:50:57;;;;;;;5.77;5.40;;;15.50;47.60;;;;;;20783;6714;118334;-88
2022/11/12 12:53:44;;;;;;;5.77;5.33;;;15.40;48.50;;;;;;20921;6714;116826;-93
2022/11/12 12:56:13;;;;;;;5.90;5.57;;;15.10;49.10;;;;;;20776;6699;305052;-89
2022/11/12 12:58:49;;;;;;;5.72;5.43;;;15.20;48.50;;;;;;20731;6714;335071;-89
2022/11/12 13:01:33;;;;;;;6.60;6.20;;;15.40;47.70;;;;;;20531;6733;308267;-88
2022/11/12 13:04:08;;;;;;;5.53;5.20;;;15.60;47.10;;;;;;20768;6718;305119;-91
2022/11/12 13:06:45;;;;;;;5.40;4.90;;;15.80;47.20;;;;;;20920;6721;117207;-87
2022/11/12 13:09:20;;;;;;;5.23;4.83;;;15.50;47.90;;;;;;20763;6716;283316;-90
2022/11/12 13:14:41;;;;;;;4.30;4.07;;;15.60;47.40;;;;;;20638;6770;119186;-89
2022/11/12 13:17:39;;;;;;;4.20;4.00;;;15.40;48.10;;;;;;20929;6718;121930;-88
2022/11/12 13:20:15;;;;;;;4.77;4.47;;;15.10;48.80;;;;;;19801;7053;122900;-87
2022/11/12 13:25:26;;;;;;;4.10;3.90;;;15.00;48.20;;;;;;20164;6708;118302;-90
2022/11/12 13:28:05;;;;;;;4.00;3.70;;;15.00;48.80;;;;;;20802;6724;117075;-88
2022/11/12 13:30:41;;;;;;;4.72;4.40;;;14.80;49.30;;;;;;20581;6709;309294;-89
2022/11/12 13:33:29;;;;;;;4.50;4.20;;;15.00;48.50;;;;;;21005;6709;117154;-89
2022/11/12 13:36:16;;;;;;;4.70;4.40;;;15.00;48.80;;;;;;20728;6724;306471;-90
2022/11/12 13:38:54;;;;;;;4.30;4.10;;;15.10;47.00;;;;;;20880;6727;119175;-90
2022/11/12 13:44:26;;;;;;;;;;;;;;;;;;;;;
2022/11/12 13:47:01;;;;;;;;;;;;;;;;;;;;;
2022/11/12 13:49:27;;;;;;;4.60;4.30;;;15.00;48.20;;;;;;20751;6704;126135;-91